createdAt,value
2023-01-05T00:01:37.107Z,11.10
2023-01-05T00:04:06.018Z,11.10
2023-01-05T00:06:34.338Z,11.10
2023-01-05T00:09:03.872Z,11.10
2023-01-05T00:11:49.009Z,11.10
2023-01-05T00:14:35.630Z,11.10
2023-01-05T00:17:21.898Z,11.00
2023-01-05T00:20:07.416Z,11.10
2023-01-05T00:22:42.322Z,11.00
2023-01-05T00:25:13.401Z,11.00
2023-01-05T00:27:42.975Z,11.00
2023-01-05T00:30:12.346Z,11.00
2023-01-05T00:32:41.582Z,11.00
2023-01-05T00:35:10.854Z,11.00
2023-01-05T00:37:39.453Z,11.00
2023-01-05T00:40:09.091Z,11.00
2023-01-05T00:42:38.830Z,11.00
2023-01-05T00:45:08.225Z,10.90
2023-01-05T00:47:36.265Z,10.90
2023-01-05T00:50:04.614Z,10.90
2023-01-05T00:52:32.502Z,10.90
2023-01-05T00:55:00.382Z,10.90
2023-01-05T00:57:28.245Z,10.90
2023-01-05T00:59:57.443Z,10.90
2023-01-05T01:02:25.436Z,10.90
2023-01-05T01:04:53.388Z,11.00
2023-01-05T01:07:21.388Z,11.00
2023-01-05T01:09:49.333Z,11.00
2023-01-05T01:12:17.256Z,11.00
2023-01-05T01:14:48.708Z,11.00
2023-01-05T01:17:18.208Z,11.00
2023-01-05T01:19:46.713Z,11.00
2023-01-05T01:22:15.160Z,11.00
2023-01-05T01:24:43.068Z,11.00
2023-01-05T01:27:10.953Z,11.00
2023-01-05T01:29:38.858Z,11.00
2023-01-05T01:32:06.814Z,11.00
2023-01-05T01:34:36.381Z,11.00
2023-01-05T01:37:04.395Z,11.00
2023-01-05T01:39:32.325Z,10.90
2023-01-05T01:42:00.149Z,11.00
2023-01-05T01:44:55.369Z,10.90
2023-01-05T01:47:28.874Z,11.00
2023-01-05T01:50:00.804Z,10.90
2023-01-05T01:52:30.384Z,10.90
2023-01-05T01:54:58.888Z,11.00
2023-01-05T01:57:29.126Z,11.00
2023-01-05T01:59:59.800Z,10.90
2023-01-05T02:02:29.208Z,11.00
2023-01-05T02:05:03.680Z,10.90
2023-01-05T02:07:35.018Z,11.00
2023-01-05T02:10:04.279Z,11.00
2023-01-05T02:12:40.733Z,11.00
2023-01-05T02:15:21.719Z,11.00
2023-01-05T02:18:01.013Z,11.00
2023-01-05T02:20:41.038Z,11.00
2023-01-05T02:23:53.981Z,11.00
2023-01-05T02:26:50.902Z,11.00
2023-01-05T02:29:45.113Z,11.00
2023-01-05T02:32:20.798Z,11.00
2023-01-05T02:34:59.328Z,11.00
2023-01-05T02:37:33.690Z,11.00
2023-01-05T02:40:07.497Z,11.00
2023-01-05T02:42:37.459Z,11.00
2023-01-05T02:45:07.366Z,11.00
2023-01-05T02:47:44.890Z,11.00
2023-01-05T02:50:18.759Z,11.00
2023-01-05T02:52:54.514Z,11.00
2023-01-05T02:55:28.401Z,11.00
2023-01-05T02:58:01.354Z,11.00
2023-01-05T03:00:34.400Z,11.00
2023-01-05T03:03:08.839Z,11.00
2023-01-05T03:05:40.933Z,11.00
2023-01-05T03:08:25.036Z,11.00
2023-01-05T03:11:20.279Z,11.00
2023-01-05T03:13:52.546Z,11.00
2023-01-05T03:16:24.571Z,11.00
2023-01-05T03:19:13.716Z,11.00
2023-01-05T03:21:59.937Z,11.00
2023-01-05T03:24:45.220Z,11.00
2023-01-05T03:27:32.523Z,11.00
2023-01-05T03:30:18.213Z,11.00
2023-01-05T03:33:08.608Z,11.00
2023-01-05T03:35:44.660Z,11.00
2023-01-05T03:38:20.116Z,11.00
2023-01-05T03:40:50.901Z,11.00
2023-01-05T03:43:18.971Z,11.00
2023-01-05T03:45:53.625Z,11.00
2023-01-05T03:48:22.094Z,11.00
2023-01-05T03:50:51.592Z,11.00
2023-01-05T03:53:19.454Z,11.00
2023-01-05T03:55:47.309Z,11.00
2023-01-05T03:58:15.213Z,11.00
2023-01-05T04:00:43.083Z,11.00
2023-01-05T04:03:11.245Z,11.00
2023-01-05T04:05:39.170Z,11.00
2023-01-05T04:08:08.745Z,11.00
2023-01-05T04:10:36.826Z,11.00
2023-01-05T04:13:04.760Z,11.00
2023-01-05T04:15:32.693Z,11.00
2023-01-05T04:18:00.579Z,10.90
2023-01-05T04:20:28.487Z,11.00
2023-01-05T04:22:56.305Z,11.00
2023-01-05T04:25:25.508Z,11.00
2023-01-05T04:27:53.402Z,11.00
2023-01-05T04:30:21.585Z,11.00
2023-01-05T04:32:49.464Z,11.00
2023-01-05T04:35:17.465Z,11.00
2023-01-05T04:37:46.127Z,11.00
2023-01-05T04:40:14.041Z,11.00
2023-01-05T04:42:43.283Z,11.00
2023-01-05T04:45:12.086Z,11.00
2023-01-05T04:47:39.927Z,11.00
2023-01-05T04:50:09.334Z,11.00
2023-01-05T04:52:37.207Z,11.00
2023-01-05T04:55:05.883Z,11.00
2023-01-05T04:57:33.721Z,11.00
2023-01-05T05:00:03.924Z,11.00
2023-01-05T05:02:32.016Z,11.00
2023-01-05T05:05:00.045Z,11.00
2023-01-05T05:07:28.252Z,11.00
2023-01-05T05:09:56.087Z,11.00
2023-01-05T05:12:23.973Z,11.00
2023-01-05T05:14:52.399Z,10.90
2023-01-05T05:17:21.641Z,10.90
2023-01-05T05:19:49.514Z,10.90
2023-01-05T05:22:17.437Z,10.90
2023-01-05T05:24:45.283Z,10.90
2023-01-05T05:27:13.160Z,10.90
2023-01-05T05:29:41.066Z,11.00
2023-01-05T05:32:08.946Z,11.00
2023-01-05T05:34:38.250Z,10.90
2023-01-05T05:37:06.161Z,10.90
2023-01-05T05:39:34.032Z,10.90
2023-01-05T05:42:01.883Z,10.90
2023-01-05T05:44:29.799Z,10.90
2023-01-05T05:46:57.800Z,10.90
2023-01-05T05:49:25.764Z,10.90
2023-01-05T05:51:54.961Z,10.90
2023-01-05T05:54:22.870Z,10.90
2023-01-05T05:56:50.772Z,10.90
2023-01-05T05:59:18.627Z,10.90
2023-01-05T06:01:46.653Z,10.90
2023-01-05T06:04:14.649Z,10.90
2023-01-05T06:06:42.564Z,10.90
2023-01-05T06:09:11.777Z,10.90
2023-01-05T06:11:39.714Z,10.90
2023-01-05T06:14:08.395Z,10.80
2023-01-05T06:16:36.614Z,10.80
2023-01-05T06:19:04.582Z,10.80
2023-01-05T06:21:32.470Z,10.80
2023-01-05T06:24:00.344Z,10.80
2023-01-05T06:26:29.573Z,10.80
2023-01-05T06:28:57.413Z,10.80
2023-01-05T06:31:25.349Z,10.80
2023-01-05T06:33:54.046Z,10.80
2023-01-05T06:36:21.879Z,10.80
2023-01-05T06:38:49.820Z,10.80
2023-01-05T06:41:17.707Z,10.80
2023-01-05T06:43:46.911Z,10.80
2023-01-05T06:46:14.816Z,10.80
2023-01-05T06:48:42.617Z,10.80
2023-01-05T06:51:10.492Z,10.80
2023-01-05T06:53:38.319Z,10.80
2023-01-05T06:56:06.822Z,10.80
2023-01-05T06:58:34.695Z,10.80
2023-01-05T07:01:04.083Z,10.80
2023-01-05T07:03:32.183Z,10.80
2023-01-05T07:06:00.120Z,10.80
2023-01-05T07:08:27.992Z,10.80
2023-01-05T07:10:55.827Z,10.70
2023-01-05T07:13:23.706Z,10.70
2023-01-05T07:15:51.603Z,10.70
2023-01-05T07:18:20.839Z,10.70
2023-01-05T07:20:48.731Z,10.80
2023-01-05T07:23:16.534Z,10.70
2023-01-05T07:25:44.399Z,10.80
2023-01-05T07:28:12.276Z,10.70
2023-01-05T07:30:40.160Z,10.80
2023-01-05T07:33:08.106Z,10.80
2023-01-05T07:35:37.370Z,10.80
2023-01-05T07:38:05.234Z,10.80
2023-01-05T07:40:33.057Z,10.70
2023-01-05T07:43:01.024Z,10.80
2023-01-05T07:45:29.098Z,10.80
2023-01-05T07:47:57.038Z,10.70
2023-01-05T07:50:24.974Z,10.70
2023-01-05T07:52:54.182Z,10.70
2023-01-05T07:55:22.266Z,10.70
2023-01-05T07:57:50.147Z,10.70
2023-01-05T08:00:18.476Z,10.70
2023-01-05T08:02:46.714Z,10.70
2023-01-05T08:05:14.696Z,10.70
2023-01-05T08:07:42.606Z,10.70
2023-01-05T08:10:30.365Z,10.70
2023-01-05T08:13:20.593Z,10.70
2023-01-05T08:15:51.262Z,10.70
2023-01-05T08:18:19.847Z,10.70
2023-01-05T08:20:52.660Z,10.70
2023-01-05T08:23:25.382Z,10.70
2023-01-05T08:25:56.581Z,10.70
2023-01-05T08:28:29.919Z,10.70
2023-01-05T08:31:03.242Z,10.70
2023-01-05T08:33:31.262Z,10.70
2023-01-05T08:35:59.329Z,10.70
2023-01-05T08:38:27.628Z,10.70
2023-01-05T08:41:00.089Z,10.70
2023-01-05T08:43:28.325Z,10.70
2023-01-05T08:45:56.305Z,10.70
2023-01-05T08:48:24.237Z,10.80
2023-01-05T08:50:52.101Z,10.80
2023-01-05T08:53:20.031Z,10.70
2023-01-05T08:55:47.848Z,10.70
2023-01-05T08:58:17.108Z,10.80
2023-01-05T09:00:45.050Z,10.80
2023-01-05T09:03:13.075Z,10.80
2023-01-05T09:05:40.991Z,10.80
2023-01-05T09:08:08.838Z,10.80
2023-01-05T09:10:36.724Z,10.80
2023-01-05T09:13:04.617Z,10.80
2023-01-05T09:15:33.900Z,10.80
2023-01-05T09:18:01.909Z,10.80
2023-01-05T09:20:34.569Z,10.80
2023-01-05T09:23:05.657Z,10.80
2023-01-05T09:25:33.540Z,10.80
2023-01-05T09:28:01.408Z,10.90
2023-01-05T09:30:32.122Z,10.90
2023-01-05T09:33:05.623Z,10.90
2023-01-05T09:35:33.480Z,10.90
2023-01-05T09:38:01.394Z,10.90
2023-01-05T09:40:32.190Z,10.90
2023-01-05T09:43:00.137Z,10.90
2023-01-05T09:45:29.561Z,10.90
2023-01-05T09:48:00.109Z,10.90
2023-01-05T09:50:31.795Z,10.90
2023-01-05T09:53:01.940Z,10.90
2023-01-05T09:55:32.361Z,11.00
2023-01-05T09:58:06.229Z,11.00
2023-01-05T10:00:34.532Z,11.00
2023-01-05T10:03:04.551Z,11.00
2023-01-05T10:05:38.709Z,11.00
2023-01-05T10:08:12.093Z,11.00
2023-01-05T10:11:07.699Z,11.00
2023-01-05T10:13:39.112Z,11.00
2023-01-05T10:16:08.029Z,11.00
2023-01-05T10:18:37.578Z,11.00
2023-01-05T10:21:17.963Z,11.00
2023-01-05T10:24:01.880Z,11.10
2023-01-05T10:26:58.657Z,11.10
2023-01-05T10:29:28.256Z,11.10
2023-01-05T10:32:00.446Z,11.10
2023-01-05T10:34:47.939Z,11.10
2023-01-05T10:37:41.578Z,11.10
2023-01-05T10:40:22.843Z,11.10
2023-01-05T10:43:00.316Z,11.10
2023-01-05T10:45:31.336Z,11.10
2023-01-05T10:48:00.127Z,11.10
2023-01-05T10:50:37.744Z,11.10
2023-01-05T10:53:11.972Z,11.10
2023-01-05T10:55:51.188Z,11.10
2023-01-05T10:58:23.892Z,11.10
2023-01-05T11:00:55.132Z,11.10
2023-01-05T11:04:04.334Z,11.10
2023-01-05T11:06:22.701Z,11.20
2023-01-05T11:08:52.447Z,11.10
2023-01-05T11:11:25.985Z,11.20
2023-01-05T11:13:57.085Z,11.20
2023-01-05T11:16:28.264Z,11.20
2023-01-05T11:18:58.677Z,11.20
2023-01-05T11:21:28.890Z,11.20
2023-01-05T11:23:59.841Z,11.20
2023-01-05T11:26:35.301Z,11.20
2023-01-05T11:29:15.073Z,11.30
2023-01-05T11:31:48.010Z,11.20
2023-01-05T11:34:26.115Z,11.20
2023-01-05T11:36:55.521Z,11.30
2023-01-05T11:39:30.432Z,11.30
2023-01-05T11:42:21.767Z,11.30
2023-01-05T11:44:55.489Z,11.30
2023-01-05T11:47:27.967Z,11.30
2023-01-05T11:50:06.936Z,11.30
2023-01-05T11:52:38.448Z,11.30
2023-01-05T11:55:31.140Z,11.40
2023-01-05T11:58:24.503Z,11.30
2023-01-05T12:01:15.164Z,11.40
2023-01-05T12:04:01.206Z,11.40
2023-01-05T12:06:44.474Z,11.40
2023-01-05T12:09:18.465Z,11.40
2023-01-05T12:11:57.992Z,11.40
2023-01-05T12:14:35.898Z,11.40
2023-01-05T12:17:12.902Z,11.40
2023-01-05T12:19:58.542Z,11.40
2023-01-05T12:22:46.059Z,11.40
2023-01-05T12:25:28.599Z,11.50
2023-01-05T12:28:35.814Z,11.40
2023-01-05T12:34:40.166Z,11.50
2023-01-05T12:37:21.014Z,11.50
2023-01-05T12:40:12.079Z,11.60
2023-01-05T12:42:59.813Z,11.60
2023-01-05T12:45:57.789Z,11.70
2023-01-05T12:48:30.156Z,11.70
2023-01-05T12:51:05.649Z,11.80
2023-01-05T12:53:47.718Z,11.80
2023-01-05T12:56:26.886Z,11.70
2023-01-05T12:59:13.781Z,11.70
2023-01-05T13:01:46.317Z,11.60
2023-01-05T13:04:41.509Z,11.60
2023-01-05T13:07:20.379Z,11.60
2023-01-05T13:09:57.091Z,11.60
2023-01-05T13:12:28.623Z,11.60
2023-01-05T13:15:07.380Z,11.60
2023-01-05T13:17:41.816Z,11.60
2023-01-05T13:20:29.240Z,11.60
2023-01-05T13:23:03.200Z,11.60
2023-01-05T13:25:34.334Z,11.60
2023-01-05T13:28:02.325Z,11.60
2023-01-05T13:30:35.188Z,11.60
2023-01-05T13:33:25.765Z,11.60
2023-01-05T13:36:04.207Z,11.60
2023-01-05T13:39:01.886Z,11.60
2023-01-05T13:41:50.292Z,11.60
2023-01-05T13:44:37.581Z,11.60
2023-01-05T13:47:29.918Z,11.50
2023-01-05T13:50:26.464Z,11.50
2023-01-05T13:53:04.672Z,11.50
2023-01-05T13:55:37.975Z,11.50
2023-01-05T13:58:07.201Z,11.50
2023-01-05T14:00:39.554Z,11.60
2023-01-05T14:03:15.003Z,11.60
2023-01-05T14:05:51.960Z,11.60
2023-01-05T14:08:24.117Z,11.60
2023-01-05T14:11:14.403Z,11.60
2023-01-05T14:13:48.599Z,11.60
2023-01-05T14:17:01.669Z,11.60
2023-01-05T14:19:52.761Z,11.60
2023-01-05T14:22:49.313Z,11.60
2023-01-05T14:25:53.741Z,11.60
2023-01-05T14:28:43.484Z,11.60
2023-01-05T14:31:43.102Z,11.60
2023-01-05T14:34:17.068Z,11.60
2023-01-05T14:36:48.032Z,11.60
2023-01-05T14:39:31.725Z,11.60
2023-01-05T14:42:06.083Z,11.50
2023-01-05T14:44:44.127Z,11.50
2023-01-05T14:47:12.286Z,11.50
2023-01-05T14:49:44.555Z,11.50
2023-01-05T14:52:17.968Z,11.50
2023-01-05T14:55:27.028Z,11.50
2023-01-05T14:58:03.245Z,11.50
2023-01-05T15:03:21.060Z,11.50
2023-01-05T15:05:56.227Z,11.50
2023-01-05T15:08:38.825Z,11.40
2023-01-05T15:11:24.359Z,11.40
2023-01-05T15:14:35.814Z,11.40
2023-01-05T15:17:37.401Z,11.40
2023-01-05T15:20:26.292Z,11.40
2023-01-05T15:23:10.084Z,11.40
2023-01-05T15:26:03.236Z,11.40
2023-01-05T15:29:00.741Z,11.40
2023-01-05T15:31:36.595Z,11.40
2023-01-05T15:34:18.389Z,11.40
2023-01-05T15:36:52.400Z,11.40
2023-01-05T15:39:29.289Z,11.40
2023-01-05T15:42:00.542Z,11.40
2023-01-05T15:44:36.967Z,11.40
2023-01-05T15:47:05.793Z,11.40
2023-01-05T15:49:34.977Z,11.30
2023-01-05T15:52:03.178Z,11.30
2023-01-05T15:54:32.518Z,11.30
2023-01-05T15:57:02.492Z,11.30
2023-01-05T15:59:36.068Z,11.20
2023-01-05T16:02:16.571Z,11.20
2023-01-05T16:04:44.491Z,11.20
2023-01-05T16:07:13.124Z,11.10
2023-01-05T16:09:47.184Z,11.10
2023-01-05T16:12:24.153Z,11.00
2023-01-05T16:14:57.779Z,11.00
2023-01-05T16:17:26.943Z,11.00
2023-01-05T16:19:58.119Z,11.00
2023-01-05T16:22:30.783Z,11.00
2023-01-05T16:25:05.183Z,11.00
2023-01-05T16:27:38.213Z,11.00
2023-01-05T16:30:29.562Z,11.00
2023-01-05T16:32:59.238Z,11.00
2023-01-05T16:35:42.954Z,11.00
2023-01-05T16:38:27.077Z,10.90
2023-01-05T16:41:14.468Z,10.90
2023-01-05T16:43:45.704Z,10.90
2023-01-05T16:46:37.274Z,10.90
2023-01-05T16:49:26.065Z,10.90
2023-01-05T16:51:54.922Z,10.90
2023-01-05T16:54:24.728Z,10.90
2023-01-05T16:56:59.043Z,10.90
2023-01-05T16:59:49.932Z,10.80
2023-01-05T17:02:47.807Z,10.80
2023-01-05T17:05:18.045Z,10.80
2023-01-05T17:07:48.321Z,10.80
2023-01-05T17:10:23.588Z,10.80
2023-01-05T17:13:01.184Z,10.80
2023-01-05T17:15:32.355Z,10.70
2023-01-05T17:18:02.251Z,10.70
2023-01-05T17:20:36.706Z,10.70
2023-01-05T17:23:04.824Z,10.70
2023-01-05T17:25:34.440Z,10.80
2023-01-05T17:28:02.364Z,10.80
2023-01-05T17:30:30.487Z,10.80
2023-01-05T17:32:58.425Z,10.70
2023-01-05T17:35:27.668Z,10.70
2023-01-05T17:37:55.593Z,10.70
2023-01-05T17:40:23.981Z,10.70
2023-01-05T17:42:51.902Z,10.70
2023-01-05T17:45:21.913Z,10.60
2023-01-05T17:47:50.846Z,10.60
2023-01-05T17:50:20.705Z,10.60
2023-01-05T17:52:50.311Z,10.60
2023-01-05T17:55:18.439Z,10.60
2023-01-05T17:57:46.689Z,10.60
2023-01-05T18:00:18.175Z,10.50
2023-01-05T18:02:49.589Z,10.50
2023-01-05T18:05:18.065Z,10.60
2023-01-05T18:07:46.541Z,10.60
2023-01-05T18:10:18.005Z,10.60
2023-01-05T18:12:46.195Z,10.60
2023-01-05T18:15:14.808Z,10.60
2023-01-05T18:17:43.288Z,10.60
2023-01-05T18:20:14.214Z,10.70
2023-01-05T18:22:42.783Z,10.60
2023-01-05T18:25:12.332Z,10.60
2023-01-05T18:27:41.967Z,10.60
2023-01-05T18:30:11.645Z,10.60
2023-01-05T18:32:40.147Z,10.60
2023-01-05T18:35:10.320Z,10.60
2023-01-05T18:37:38.737Z,10.60
2023-01-05T18:40:08.911Z,10.60
2023-01-05T18:42:37.216Z,10.60
2023-01-05T18:45:19.649Z,10.60
2023-01-05T18:47:57.685Z,10.70
2023-01-05T18:50:26.282Z,10.70
2023-01-05T18:52:54.125Z,10.70
2023-01-05T18:55:22.073Z,10.70
2023-01-05T18:57:50.231Z,10.70
2023-01-05T19:00:19.809Z,10.70
2023-01-05T19:02:47.744Z,10.70
2023-01-05T19:05:15.748Z,10.70
2023-01-05T19:07:43.644Z,10.80
2023-01-05T19:10:11.709Z,10.80
2023-01-05T19:12:39.622Z,10.80
2023-01-05T19:15:08.429Z,10.80
2023-01-05T19:17:37.767Z,10.90
2023-01-05T19:20:06.754Z,10.90
2023-01-05T19:22:35.141Z,10.90
2023-01-05T19:25:05.423Z,10.90
2023-01-05T19:27:33.327Z,11.00
2023-01-05T19:30:01.234Z,11.00
2023-01-05T19:32:29.170Z,11.00
2023-01-05T19:34:58.391Z,11.00
2023-01-05T19:37:26.286Z,11.00
2023-01-05T19:39:54.314Z,11.00
2023-01-05T19:42:22.221Z,11.00
2023-01-05T19:44:50.330Z,11.00
2023-01-05T19:47:18.276Z,11.10
2023-01-05T19:49:46.180Z,11.10
2023-01-05T19:52:15.549Z,11.10
2023-01-05T19:54:43.388Z,11.10
2023-01-05T19:57:11.465Z,11.10
2023-01-05T19:59:39.314Z,11.10
2023-01-05T20:02:07.787Z,11.10
2023-01-05T20:04:35.768Z,11.10
2023-01-05T20:07:04.491Z,11.10
2023-01-05T20:09:33.958Z,11.10
2023-01-05T20:12:13.886Z,11.10
2023-01-05T20:14:42.774Z,11.10
2023-01-05T20:17:11.975Z,11.10
2023-01-05T20:19:40.248Z,11.10
2023-01-05T20:22:11.823Z,11.10
2023-01-05T20:24:41.229Z,11.10
2023-01-05T20:27:13.168Z,11.10
2023-01-05T20:29:41.438Z,11.10
2023-01-05T20:32:18.611Z,11.10
2023-01-05T20:34:51.910Z,11.10
2023-01-05T20:37:20.475Z,11.10
2023-01-05T20:39:49.927Z,11.10
2023-01-05T20:42:17.871Z,11.10
2023-01-05T20:44:47.631Z,11.00
2023-01-05T20:47:16.384Z,11.10
2023-01-05T20:49:46.254Z,11.00
2023-01-05T20:52:16.012Z,11.10
2023-01-05T20:54:44.204Z,11.00
2023-01-05T20:57:13.693Z,11.00
2023-01-05T20:59:41.584Z,11.10
2023-01-05T21:02:23.109Z,11.10
2023-01-05T21:04:52.574Z,11.10
2023-01-05T21:07:21.251Z,11.10
2023-01-05T21:09:50.340Z,11.10
2023-01-05T21:12:20.156Z,11.10
2023-01-05T21:14:48.020Z,11.10
2023-01-05T21:17:16.575Z,11.10
2023-01-05T21:19:44.738Z,11.10
2023-01-05T21:22:12.622Z,11.10
2023-01-05T21:24:40.961Z,11.10
2023-01-05T21:27:08.889Z,11.10
2023-01-05T21:29:38.159Z,11.10
2023-01-05T21:32:06.385Z,11.10
2023-01-05T21:34:34.788Z,11.10
2023-01-05T21:37:02.966Z,11.10
2023-01-05T21:39:31.011Z,11.10
2023-01-05T21:42:16.372Z,11.10
2023-01-05T21:44:45.660Z,11.10
2023-01-05T21:47:13.909Z,11.10
2023-01-05T21:49:41.845Z,11.20
2023-01-05T21:52:29.108Z,11.20
2023-01-05T21:55:14.741Z,11.20
2023-01-05T21:57:42.714Z,11.20
2023-01-05T22:00:13.418Z,11.20
2023-01-05T22:02:41.231Z,11.20
2023-01-05T22:05:09.810Z,11.20
2023-01-05T22:07:37.721Z,11.20
2023-01-05T22:10:06.484Z,11.20
2023-01-05T22:12:34.514Z,11.20
2023-01-05T22:15:02.452Z,11.20
2023-01-05T22:17:33.240Z,11.20
2023-01-05T22:20:01.283Z,11.20
2023-01-05T22:22:29.159Z,11.20
2023-01-05T22:24:57.044Z,11.20
2023-01-05T22:27:24.982Z,11.20
2023-01-05T22:29:52.962Z,11.20
2023-01-05T22:32:20.789Z,11.20
2023-01-05T22:34:50.006Z,11.20
2023-01-05T22:37:17.936Z,11.30
2023-01-05T22:39:45.815Z,11.20
2023-01-05T22:42:13.653Z,11.30
2023-01-05T22:44:41.592Z,11.30
2023-01-05T22:47:09.437Z,11.30
2023-01-05T22:49:37.270Z,11.20
2023-01-05T22:52:06.648Z,11.20
2023-01-05T22:54:34.501Z,11.30
2023-01-05T22:57:02.462Z,11.20
2023-01-05T22:59:30.363Z,11.20
2023-01-05T23:01:58.342Z,11.30
2023-01-05T23:04:26.207Z,11.20
2023-01-05T23:06:54.107Z,11.30
2023-01-05T23:09:23.654Z,11.20
2023-01-05T23:11:51.530Z,11.30
2023-01-05T23:14:19.409Z,11.30
2023-01-05T23:16:48.003Z,11.30
2023-01-05T23:19:16.896Z,11.30
2023-01-05T23:21:45.061Z,11.20
2023-01-05T23:24:13.208Z,11.20
2023-01-05T23:26:42.646Z,11.20
2023-01-05T23:29:10.543Z,11.20
2023-01-05T23:31:38.397Z,11.20
2023-01-05T23:34:06.306Z,11.10
2023-01-05T23:36:34.213Z,11.20
2023-01-05T23:39:02.123Z,11.10
2023-01-05T23:41:30.023Z,11.10
2023-01-05T23:43:59.238Z,11.10
2023-01-05T23:46:27.184Z,11.10
2023-01-05T23:48:55.275Z,11.10
2023-01-05T23:51:24.475Z,11.00
2023-01-05T23:53:53.869Z,11.00
2023-01-05T23:56:23.627Z,11.00
2023-01-05T23:58:57.258Z,11.00
